Hauptseite
METAR-TAF:

METAR-TAF

Flughäfen :

Flughafen Monbetsu

Mombetsu, Japan

Breite: 44-15N, Länge: 143-32E, Höhe: 6 m

Beobachtung

Neuester Wetterbericht von vor 13 Stunden und 21 Minuten, um 07:00 UTC
Wind 10 kt aus Nord/Nordwest
Temperatur 3°C
Luftfeuchtigkeit 100%
Luftdruck 1020 hPa
Sichtweite: 3200 m
Leicht bewölkt in der Höhe von 300 ft
Aufgelockert bewölkt in der Höhe von 400 ft
Durchbrochene Bewölkung in der Höhe von 800 ft
Sprühregen leicht, feuchter Dunst,

METAR: RJEB 220700Z 33010KT 3200 R32/2000N -DZ BR FEW003 SCT004 BKN008 03/03 Q1020

Zeit: 05:21 (20:21 UTC)


TAF: fehlend

Wetterbeobachtungen und Prognosen von mehr als 4000 Flughäfen (METAR und TAF Bericht).

Die verfügbaren Stationen werden durch gelbe und rote Markierungen auf der Karte dargestellt.

Führen Sie die Maus auf sie, um den Namen der Station zu sehen.

Darauf klicken, um die Beobachtung von Wetterbeobachtungen und Prognosen zu sehen.

Um die Karte zu ändern : klicken Sie auf den grünen Tasten mit einem schwarzen Kreuz Zum Vergrößern, auf den grünen Button mit einem Gedankenstrich zu verkleinern, oder auf die grünen Pfeile für benachbarte Karten.


METAR-TAF: